Rockfall, Connecticut
Current Conditions -  °F | °C
As of 12:53 PM on Friday 21 Nov 2014 (Local Time) from KMMK Reporting Station
Broken Clouds Broken Clouds  
Wind Chill: 27°   Ceiling: 6000
Heat Index: 34°   Visibility: 10mi
Dew Point:   Wind: 9mph
Humidity: 34%   Direction: 300°WNW
Pressure: 30.23"   Gusts: 24mph
Location:  41.53°N, 72.7°W
Report Text: KMMK 211753Z AUTO 30008G21KT 10SM BKN060 01/M13 A3023 RMK AO2 SLP239 T00111133 10017 21039 53007 TSNO
Loading
Personal Weather Stations






























Interactive Weather Map New forecast layout! Learn more

10-Day Weather Forecast

Advertisements
Track Severe Weather on mobile